Kotoka International Airport

DGAA · Greater Accra, Ghana

Historia METAR DGAA · Port lotniczy Akra

Poniżej widzisz METAR-y z ostatnich kilku dni. Wybierz rok, aby przeglądać starsze METAR-y, począwszy od roku 2007.

7 grudnia 2022

Czas Kod Pogoda Temp. Widoczność Sufit Wiatr METAR/SPECI
02:00
M
27 °C 10 km+ 1.200 ft 250° 250° 7 kt METAR DGAA 070200Z 25007KT 9999 BKN012 BKN018 27/25 Q1010 NOSIG
01:00
M
28 °C 10 km+ 1.300 ft 220° 220° 9 kt METAR DGAA 070100Z 22009KT 9999 FEW011 BKN013 BKN031 28/25 Q1011 NOSIG
00:00
M
28 °C 10 km+ 1.200 ft 210° 210° 9 kt METAR DGAA 070000Z 21009KT 9999 BKN012 28/25 Q1011 NOSIG

6 grudnia 2022

Czas Kod Pogoda Temp. Widoczność Sufit Wiatr METAR/SPECI
23:00
V
28 °C 10 km+ - 220° 220° 8 kt METAR DGAA 062300Z 22008KT 9999 FEW014 28/25 Q1011 NOSIG
22:00
V
28 °C 10 km+ - 220° 220° 9 kt METAR DGAA 062200Z 22009KT 9999 SCT012 28/26 Q1012 NOSIG
21:00
V
28 °C 10 km+ - 220° 220° 9 kt METAR DGAA 062100Z 22009KT 9999 SCT013 28/26 Q1012 NOSIG
20:00
M
28 °C 10 km+ 1.500 ft 210° 210° 11 kt METAR DGAA 062000Z 21011KT 9999 FEW013 BKN015 28/26 Q1011 NOSIG
19:00
V
28 °C 10 km+ - 210° 210° 10 kt METAR DGAA 061900Z 21010KT 9999 SCT012 28/26 Q1010 NOSIG
18:00
V
28 °C 10 km+ - 210° 210° 12 kt METAR DGAA 061800Z 21012KT 9999 FEW015 28/25 Q1009 NOSIG
17:00
V
28 °C 10 km+ - 190° 190° 12 kt METAR DGAA 061700Z 19012KT 9999 FEW016 28/25 Q1008 NOSIG
16:00
V
30 °C 10 km+ - 190° 190° 13 kt METAR DGAA 061600Z 19013KT 9999 FEW017 30/24 Q1008 NOSIG
15:00
V
31 °C 10 km+ - 190° 190° 12 kt METAR DGAA 061500Z 19012KT 9999 FEW037 31/25 Q1008 NOSIG
14:00
V
30 °C 10 km+ - 180° 180° 10 kt METAR DGAA 061400Z 18010KT 9999 FEW024 SCT028 30/25 Q1009 NOSIG
13:00
V
31 °C 10 km+ 3.300 ft 190° 190° 9 kt METAR DGAA 061300Z 19009KT 9999 FEW027 BKN033 31/25 Q1010 NOSIG
12:00
M
32 °C 10 km+ 2.900 ft 260° 260° 5 kt METAR DGAA 061200Z 26005KT 200V330 9999 BKN029 32/24 Q1011 NOSIG
11:00
M
31 °C 10 km+ 2.200 ft 270° 270° 8 kt METAR DGAA 061100Z 27008KT 220V300 9999 BKN022 31/25 Q1012 NOSIG
10:00
V
29 °C 10 km+ - 260° 260° 9 kt METAR DGAA 061000Z 26009KT 230V290 9999 SCT017 29/25 Q1012 NOSIG
09:00
V
28 °C 10 km+ - 260° 260° 10 kt METAR DGAA 060900Z 26010KT 9999 FEW014 28/25 Q1012 NOSIG
08:00
V
27 °C 8 km - 270° 270° 8 kt METAR DGAA 060800Z 27008KT 8000 FEW009 27/25 Q1013 NOSIG
07:00
V
26 °C 8 km - 270° 270° 7 kt METAR DGAA 060700Z 27007KT 8000 FEW007 26/25 Q1012 NOSIG
06:00
V
26 °C 8 km - 270° 270° 7 kt METAR DGAA 060600Z 27007KT 8000 FEW017 26/25 Q1011 NOSIG
05:00
V
26 °C 10 km+ - 260° 260° 8 kt METAR DGAA 060500Z 26008KT 9999 FEW014 26/25 Q1011 NOSIG
04:00
V
26 °C 10 km+ - 270° 270° 6 kt METAR DGAA 060400Z 27006KT 9999 FEW012 26/25 Q1010 NOSIG
03:00
V
26 °C 10 km+ - 270° 270° 7 kt METAR DGAA 060300Z 27007KT 9999 FEW009 26/25 Q1010 NOSIG
02:00
V
26 °C 10 km+ - 270° 270° 5 kt METAR DGAA 060200Z 27005KT 9999 FEW009 26/25 Q1011 NOSIG
01:00
V
27 °C 10 km+ - 250° 250° 5 kt METAR DGAA 060100Z 25005KT 9999 FEW010 27/25 Q1011 NOSIG
00:00
V
27 °C 10 km+ - 230° 230° 5 kt METAR DGAA 060000Z 23005KT 9999 FEW011 27/25 Q1012 NOSIG

5 grudnia 2022

Czas Kod Pogoda Temp. Widoczność Sufit Wiatr METAR/SPECI
23:00
V
27 °C 10 km+ - 230° 230° 7 kt METAR DGAA 052300Z 23007KT 9999 FEW011 27/25 Q1012 NOSIG
22:00
V
28 °C 10 km+ - 240° 240° 4 kt METAR DGAA 052200Z 24004KT 210V270 9999 FEW011 28/25 Q1012 NOSIG
21:00
V
28 °C 10 km+ - 220° 220° 5 kt METAR DGAA 052100Z 22005KT CAVOK 28/25 Q1013 NOSIG
20:00
V
28 °C 10 km+ - 220° 220° 6 kt METAR DGAA 052000Z 22006KT CAVOK 28/25 Q1012 NOSIG
19:00
V
27 °C 10 km+ - 190° 190° 6 kt METAR DGAA 051900Z 19006KT CAVOK 27/25 Q1011 NOSIG
18:00
V
28 °C 10 km+ - 190° 190° 7 kt METAR DGAA 051800Z 19007KT 9999 FEW030CB 28/25 Q1010 NOSIG
17:00
V
29 °C 10 km+ - 180° 180° 8 kt METAR DGAA 051700Z 18008KT 9999 FEW030CB 29/24 Q1010 NOSIG
16:00
V
29 °C 10 km+ - 160° 160° 10 kt METAR DGAA 051600Z 16010KT 130V190 9999 FEW024 29/23 Q1009 NOSIG
15:00
V
30 °C 10 km+ - 170° 170° 8 kt METAR DGAA 051500Z 17008KT 140V200 9999 FEW028 30/24 Q1009 NOSIG
14:00
V
31 °C 10 km+ - 170° 170° 6 kt METAR DGAA 051400Z 17006KT 110V210 9999 SCT025 31/24 Q1009 NOSIG
13:00
V
31 °C 10 km+ - 180° 180° 7 kt METAR DGAA 051300Z 18007KT 100V220 9999 SCT025 31/24 Q1010 NOSIG
12:00
V
30 °C 10 km+ - 170° 170° 6 kt METAR DGAA 051200Z 17006KT 110V210 9999 FEW028 30/24 Q1011 NOSIG
11:00
V
30 °C 10 km+ - 180° 180° 6 kt METAR DGAA 051100Z 18006KT 150V210 9999 SCT025 30/25 Q1012 NOSIG
10:00
V
29 °C 10 km+ - 180° 180° 5 kt METAR DGAA 051000Z 18005KT 150V220 9999 FEW019 SCT022 29/25 Q1012 NOSIG
09:00
V
28 °C 8 km - 260° 260° 5 kt METAR DGAA 050900Z 26005KT 220V300 8000 FEW012 SCT019 28/25 Q1012 NOSIG
08:00
M
27 °C 5 km - 270° 270° 6 kt METAR DGAA 050800Z 27006KT 5000 BR FEW012 27/25 Q1012 NOSIG
07:00
M
26 °C 5 km - 270° 270° 6 kt METAR DGAA 050700Z 27006KT 5000 BR NSC 26/25 Q1011 NOSIG
06:00
U
26 °C 0 m - 270° 270° 5 kt METAR DGAA 050600Z 27005KT 170V300 NSC 26/25 Q1010 NOSIG
05:00
V
26 °C 10 km+ - 260° 260° 5 kt METAR DGAA 050500Z 26005KT CAVOK 26/25 Q1010 NOSIG
00:00
M
27 °C 10 km+ 1.400 ft 190° 190° 4 kt METAR DGAA 050000Z 19004KT 9999 BKN014 27/25 Q1011 NOSIG

4 grudnia 2022

Czas Kod Pogoda Temp. Widoczność Sufit Wiatr METAR/SPECI
23:00
V
27 °C 10 km+ - 190° 190° 3 kt METAR DGAA 042300Z 19003KT CAVOK 27/25 Q1011 NOSIG
22:00
V
27 °C 10 km+ - 180° 180° 4 kt METAR DGAA 042200Z 18004KT CAVOK 27/25 Q1011 NOSIG
21:00
V
27 °C 10 km+ - 170° 170° 4 kt METAR DGAA 042100Z 17004KT CAVOK 27/25 Q1011 NOSIG
19:00
V
27 °C 10 km+ - 180° 180° 4 kt METAR DGAA 041900Z 18004KT 9999 VCTS FEW013 FEW030CB 27/25 Q0101 NOSIG
18:00
V
27 °C 10 km+ - 170° 170° 5 kt METAR DGAA 041800Z 17005KT 9999 FEW016 FEW030CB 27/24 Q1009 NOSIG
17:00
V
28 °C 10 km+ - 180° 180° 7 kt METAR DGAA 041700Z 18007KT 9999 FEW016 FEW030CB 28/24 Q1008 NOSIG
16:00
V
29 °C 10 km+ - 160° 160° 8 kt METAR DGAA 041600Z 16008KT 140V200 9999 FEW016 29/24 Q1007 NOSIG
15:00
V
30 °C 10 km+ - 160° 160° 7 kt METAR DGAA 041500Z 16007KT 120V200 9999 FEW017 30/24 Q1008 NOSIG
14:00
V
30 °C 10 km+ - 170° 170° 7 kt METAR DGAA 041400Z 17007KT 140V200 9999 FEW017 30/24 Q1008 NOSIG
13:00
V
30 °C 10 km+ - 180° 180° 7 kt METAR DGAA 041300Z 18007KT 130V120 9999 SCT017 30/24 Q1009 NOSIG
12:00
V
30 °C 10 km+ - 160° 160° 5 kt METAR DGAA 041200Z 16005KT 030V200 9999 SCT017 30/23 Q1009 NOSIG
11:00
V
30 °C 10 km+ - 180° 180° 5 kt METAR DGAA 041100Z 18005KT 140V230 9999 SCT017 30/22 Q1010 NOSIG
10:00
V
29 °C 10 km+ - 170° 170° 6 kt METAR DGAA 041000Z 17006KT 140V220 9999 FEW026 29/23 Q1010 NOSIG

My i strony trzecie śledzimy Twoje zachowanie internetowe na naszej stronie za pomocą plików cookie. Jeśli kontynuujesz, zakładamy, że zgadzasz się z naszymi polityka plików cookie.